Trig Lind — WC8177 — position and weather

sailwx.info

Track history (hours):
 
Tides and Currents Weather Stations Pressure Air Temp Water Temp Dewpoint Dewpoint Depression Visibility Wind Speed Wind Dir Waves Ship Positions

Trig Lind

Owner: JERICO PRODUCTS INC, PETALUMA, CA. More information available from US FCC via Universal Licensing System and Coast Guard Vessel Documentation Center.

Last reported at 2018-Jun-16 14:15 UTC. Time now 2018-Jun-20 16:55 UTC.
Position N 38°06' W 122°16'.

Length 22 m; draft 1.8 m.

Type: Tug. MMSI: 366508420.

Date/timePositionNaut miles runAvg speedWind from/ knotsBaromVisibWave heightAir tempDewpointWater temp
2018-Jun-16 14:15N 38°06' W 122°16'0 0.1
2018-Jun-16 13:56N 38°06' W 122°16'0 0.0
2018-Jun-14 16:12N 38°06' W 122°16'0 0.0
2018-Jun-14 16:00N 38°06' W 122°16'2 3.1
2018-Jun-14 15:30N 38°04' W 122°15'13 8.8
2018-Jun-14 13:59N 38°03' W 121°58'4 0.3
2018-Jun-14 00:11N 38°03' W 121°53'11 8.0
2018-Jun-13 22:47N 38°02' W 122°07'2 7.7
2018-Jun-13 22:30N 38°02' W 122°10'4 8.0
2018-Jun-13 22:00N 38°04' W 122°15'2 3.4
2018-Jun-13 21:30N 38°06' W 122°16'1 1.4
2018-Jun-13 21:00N 38°05' W 122°15'3 6.2
2018-Jun-13 20:30N 38°03' W 122°18'3 7.1
2018-Jun-13 20:00N 38°01' W 122°22'4 7.1
2018-Jun-13 19:30N 37°59' W 122°25'4 7.3
2018-Jun-13 19:00N 37°55' W 122°25'4 7.1
2018-Jun-13 18:30N 37°52' W 122°23'2 4.8
2018-Jun-13 18:00N 37°50' W 122°22'2 4.3
2018-Jun-13 17:30N 37°48' W 122°21'2 4.1
2018-Jun-13 17:00N 37°46' W 122°20'2 4.4
2018-Jun-13 16:30N 37°44' W 122°18'2 4.4
2018-Jun-13 16:00N 37°42' W 122°17'2 4.3
2018-Jun-13 15:30N 37°40' W 122°16'2 3.5
2018-Jun-13 15:00N 37°39' W 122°15'0 0.7
2018-Jun-13 14:30N 37°39' W 122°15'1 1.0
2018-Jun-13 13:59N 37°38' W 122°14'0 1.0
2018-Jun-13 13:30N 37°39' W 122°14'0 0.5
2018-Jun-13 12:59N 37°39' W 122°15'1 2.0
2018-Jun-13 12:28N 37°38' W 122°14'1 1.2
2018-Jun-13 12:00N 37°39' W 122°14'1 1.5
2018-Jun-13 11:30N 37°39' W 122°15'0 0.8
2018-Jun-13 10:59N 37°39' W 122°15'1 2.1
2018-Jun-13 10:29N 37°38' W 122°13'1 1.4
2018-Jun-13 10:00N 37°39' W 122°14'1 1.4
2018-Jun-13 09:29N 37°39' W 122°15'1 1.2
2018-Jun-13 08:58N 37°39' W 122°14'0 0.6
2018-Jun-13 08:30N 37°39' W 122°14'0 0.8
2018-Jun-13 07:58N 37°39' W 122°15'1 1.7
2018-Jun-13 07:14N 37°38' W 122°13'0 0.6
2018-Jun-13 06:58N 37°38' W 122°13'1 2.3
2018-Jun-13 06:27N 37°39' W 122°14'0 0.9
2018-Jun-13 05:59N 37°39' W 122°14'1 1.8
2018-Jun-13 05:29N 37°39' W 122°13'1 2.4
2018-Jun-13 05:00N 37°39' W 122°15'1 1.6
2018-Jun-13 04:30N 37°39' W 122°14'1 1.2
2018-Jun-13 04:00N 37°38' W 122°13'1 1.9
2018-Jun-13 03:30N 37°38' W 122°15'1 1.2
2018-Jun-13 03:00N 37°39' W 122°14'1 2.1
2018-Jun-13 02:30N 37°38' W 122°15'1 1.5
2018-Jun-13 01:38N 37°39' W 122°14'0 0.9
2018-Jun-13 01:17N 37°39' W 122°14'0 0.2
2018-Jun-13 01:00N 37°39' W 122°14'1 1.2
2018-Jun-13 00:30N 37°39' W 122°14'1 1.0
2018-Jun-13 00:00N 37°39' W 122°13'0 1.0
2018-Jun-12 23:30N 37°39' W 122°14'1 1.6
2018-Jun-12 22:59N 37°39' W 122°15'0 0.8
2018-Jun-12 22:30N 37°39' W 122°15'0 0.3
2018-Jun-12 21:58N 37°39' W 122°15'1 1.6
2018-Jun-12 21:24N 37°39' W 122°14'0 0.9
2018-Jun-12 21:00N 37°39' W 122°14'1 1.3
2018-Jun-12 20:30N 37°38' W 122°15'1 1.5
2018-Jun-12 19:59N 37°39' W 122°14'1 1.1
2018-Jun-12 19:08N 37°39' W 122°15'0 1.1
2018-Jun-12 18:47N 37°38' W 122°15'1 2.7
2018-Jun-12 18:28N 37°38' W 122°14'1 1.4
2018-Jun-12 17:59N 37°38' W 122°13'0 0.6
2018-Jun-12 17:30N 37°38' W 122°13'1 1.4
2018-Jun-12 17:00N 37°39' W 122°14'0 0.0
2018-Jun-12 16:29N 37°39' W 122°14'1 2.4
2018-Jun-12 15:59N 37°39' W 122°15'1 1.8
2018-Jun-12 15:27N 37°39' W 122°14'0 0.7
2018-Jun-12 15:00N 37°39' W 122°14'0 0.7
2018-Jun-12 14:29N 37°39' W 122°14'1 1.4
2018-Jun-12 13:59N 37°38' W 122°14'1 1.9
2018-Jun-12 13:30N 37°39' W 122°15'1 1.3
2018-Jun-12 12:59N 37°39' W 122°14'1 1.5
2018-Jun-12 12:29N 37°39' W 122°15'0 0.6
2018-Jun-12 12:00N 37°39' W 122°15'1 2.5
2018-Jun-12 11:30N 37°38' W 122°13'1 1.3
2018-Jun-12 11:00N 37°39' W 122°14'1 2.1
2018-Jun-12 10:30N 37°39' W 122°15'0 0.8
2018-Jun-12 09:58N 37°39' W 122°16'1 1.3
2018-Jun-12 09:30N 37°39' W 122°15'1 2.4
2018-Jun-12 09:00N 37°38' W 122°14'1 1.2
2018-Jun-12 08:29N 37°39' W 122°14'0 0.2
2018-Jun-12 08:00N 37°39' W 122°14'1 2.2
2018-Jun-12 07:30N 37°39' W 122°15'0 0.6
2018-Jun-12 07:00N 37°39' W 122°15'1 1.5
2018-Jun-12 06:30N 37°40' W 122°16'1 2.7
2018-Jun-12 06:00N 37°41' W 122°17'3 6.6
2018-Jun-12 05:30N 37°44' W 122°19'4 7.2
2018-Jun-12 05:00N 37°47' W 122°21'4 7.0
2018-Jun-12 04:30N 37°51' W 122°22'3 5.6
2018-Jun-12 04:00N 37°53' W 122°24'2 4.7
2018-Jun-12 03:30N 37°55' W 122°25'2 4.3
2018-Jun-12 03:00N 37°57' W 122°26'3 5.0
2018-Jun-12 02:30N 37°60' W 122°25'3 5.6
2018-Jun-12 02:00N 38°02' W 122°22'4 6.9
2018-Jun-12 01:30N 38°03' W 122°18'3 5.4
2018-Jun-12 01:00N 38°04' W 122°15'  
Track history (hours):
 
Tides and Currents Weather Stations Pressure Air Temp Water Temp Dewpoint Dewpoint Depression Visibility Wind Speed Wind Dir Waves Ship Positions

Trig Lind

Owner: JERICO PRODUCTS INC, PETALUMA, CA. More information available from US FCC via Universal Licensing System and Coast Guard Vessel Documentation Center.

Last reported at 2018-Jun-16 14:15 UTC. Time now 2018-Jun-20 16:55 UTC.
Position N 38°06' W 122°16'.

Length 22 m; draft 1.8 m.

Type: Tug. MMSI: 366508420.

Date/timePositionNaut miles runAvg speedWind from/ knotsBaromVisibWave heightAir tempDewpointWater temp
2018-Jun-16 14:15N 38°06' W 122°16'0 0.1
2018-Jun-16 13:56N 38°06' W 122°16'0 0.0
2018-Jun-14 16:12N 38°06' W 122°16'0 0.0
2018-Jun-14 16:00N 38°06' W 122°16'2 3.1
2018-Jun-14 15:30N 38°04' W 122°15'13 8.8
2018-Jun-14 13:59N 38°03' W 121°58'4 0.3
2018-Jun-14 00:11N 38°03' W 121°53'11 8.0
2018-Jun-13 22:47N 38°02' W 122°07'2 7.7
2018-Jun-13 22:30N 38°02' W 122°10'4 8.0
2018-Jun-13 22:00N 38°04' W 122°15'2 3.4
2018-Jun-13 21:30N 38°06' W 122°16'1 1.4
2018-Jun-13 21:00N 38°05' W 122°15'3 6.2
2018-Jun-13 20:30N 38°03' W 122°18'3 7.1
2018-Jun-13 20:00N 38°01' W 122°22'4 7.1
2018-Jun-13 19:30N 37°59' W 122°25'4 7.3
2018-Jun-13 19:00N 37°55' W 122°25'4 7.1
2018-Jun-13 18:30N 37°52' W 122°23'2 4.8
2018-Jun-13 18:00N 37°50' W 122°22'2 4.3
2018-Jun-13 17:30N 37°48' W 122°21'2 4.1
2018-Jun-13 17:00N 37°46' W 122°20'2 4.4
2018-Jun-13 16:30N 37°44' W 122°18'2 4.4
2018-Jun-13 16:00N 37°42' W 122°17'2 4.3
2018-Jun-13 15:30N 37°40' W 122°16'2 3.5
2018-Jun-13 15:00N 37°39' W 122°15'0 0.7
2018-Jun-13 14:30N 37°39' W 122°15'1 1.0
2018-Jun-13 13:59N 37°38' W 122°14'0 1.0
2018-Jun-13 13:30N 37°39' W 122°14'0 0.5
2018-Jun-13 12:59N 37°39' W 122°15'1 2.0
2018-Jun-13 12:28N 37°38' W 122°14'1 1.2
2018-Jun-13 12:00N 37°39' W 122°14'1 1.5
2018-Jun-13 11:30N 37°39' W 122°15'0 0.8
2018-Jun-13 10:59N 37°39' W 122°15'1 2.1
2018-Jun-13 10:29N 37°38' W 122°13'1 1.4
2018-Jun-13 10:00N 37°39' W 122°14'1 1.4
2018-Jun-13 09:29N 37°39' W 122°15'1 1.2
2018-Jun-13 08:58N 37°39' W 122°14'0 0.6
2018-Jun-13 08:30N 37°39' W 122°14'0 0.8
2018-Jun-13 07:58N 37°39' W 122°15'1 1.7
2018-Jun-13 07:14N 37°38' W 122°13'0 0.6
2018-Jun-13 06:58N 37°38' W 122°13'1 2.3
2018-Jun-13 06:27N 37°39' W 122°14'0 0.9
2018-Jun-13 05:59N 37°39' W 122°14'1 1.8
2018-Jun-13 05:29N 37°39' W 122°13'1 2.4
2018-Jun-13 05:00N 37°39' W 122°15'1 1.6
2018-Jun-13 04:30N 37°39' W 122°14'1 1.2
2018-Jun-13 04:00N 37°38' W 122°13'1 1.9
2018-Jun-13 03:30N 37°38' W 122°15'1 1.2
2018-Jun-13 03:00N 37°39' W 122°14'1 2.1
2018-Jun-13 02:30N 37°38' W 122°15'1 1.5
2018-Jun-13 01:38N 37°39' W 122°14'0 0.9
2018-Jun-13 01:17N 37°39' W 122°14'0 0.2
2018-Jun-13 01:00N 37°39' W 122°14'1 1.2
2018-Jun-13 00:30N 37°39' W 122°14'1 1.0
2018-Jun-13 00:00N 37°39' W 122°13'0 1.0
2018-Jun-12 23:30N 37°39' W 122°14'1 1.6
2018-Jun-12 22:59N 37°39' W 122°15'0 0.8
2018-Jun-12 22:30N 37°39' W 122°15'0 0.3
2018-Jun-12 21:58N 37°39' W 122°15'1 1.6
2018-Jun-12 21:24N 37°39' W 122°14'0 0.9
2018-Jun-12 21:00N 37°39' W 122°14'1 1.3
2018-Jun-12 20:30N 37°38' W 122°15'1 1.5
2018-Jun-12 19:59N 37°39' W 122°14'1 1.1
2018-Jun-12 19:08N 37°39' W 122°15'0 1.1
2018-Jun-12 18:47N 37°38' W 122°15'1 2.7
2018-Jun-12 18:28N 37°38' W 122°14'1 1.4
2018-Jun-12 17:59N 37°38' W 122°13'0 0.6
2018-Jun-12 17:30N 37°38' W 122°13'1 1.4
2018-Jun-12 17:00N 37°39' W 122°14'0 0.0
2018-Jun-12 16:29N 37°39' W 122°14'1 2.4
2018-Jun-12 15:59N 37°39' W 122°15'1 1.8
2018-Jun-12 15:27N 37°39' W 122°14'0 0.7
2018-Jun-12 15:00N 37°39' W 122°14'0 0.7
2018-Jun-12 14:29N 37°39' W 122°14'1 1.4
2018-Jun-12 13:59N 37°38' W 122°14'1 1.9
2018-Jun-12 13:30N 37°39' W 122°15'1 1.3
2018-Jun-12 12:59N 37°39' W 122°14'1 1.5
2018-Jun-12 12:29N 37°39' W 122°15'0 0.6
2018-Jun-12 12:00N 37°39' W 122°15'1 2.5
2018-Jun-12 11:30N 37°38' W 122°13'1 1.3
2018-Jun-12 11:00N 37°39' W 122°14'1 2.1
2018-Jun-12 10:30N 37°39' W 122°15'0 0.8
2018-Jun-12 09:58N 37°39' W 122°16'1 1.3
2018-Jun-12 09:30N 37°39' W 122°15'1 2.4
2018-Jun-12 09:00N 37°38' W 122°14'1 1.2
2018-Jun-12 08:29N 37°39' W 122°14'0 0.2
2018-Jun-12 08:00N 37°39' W 122°14'1 2.2
2018-Jun-12 07:30N 37°39' W 122°15'0 0.6
2018-Jun-12 07:00N 37°39' W 122°15'1 1.5
2018-Jun-12 06:30N 37°40' W 122°16'1 2.7
2018-Jun-12 06:00N 37°41' W 122°17'3 6.6
2018-Jun-12 05:30N 37°44' W 122°19'4 7.2
2018-Jun-12 05:00N 37°47' W 122°21'4 7.0
2018-Jun-12 04:30N 37°51' W 122°22'3 5.6
2018-Jun-12 04:00N 37°53' W 122°24'2 4.7
2018-Jun-12 03:30N 37°55' W 122°25'2 4.3
2018-Jun-12 03:00N 37°57' W 122°26'3 5.0
2018-Jun-12 02:30N 37°60' W 122°25'3 5.6
2018-Jun-12 02:00N 38°02' W 122°22'4 6.9
2018-Jun-12 01:30N 38°03' W 122°18'3 5.4
2018-Jun-12 01:00N 38°04' W 122°15'  

Dump ship's entire track history